Time;durP1;ratioP1;P1;durP2;ratioP2;P2;SDS_P1;SDS_P2;PMS_P1;PMS_P2;Temp;Humidity;BMP_temperature;BMP_pressure;BME280_temperature;BME280_humidity;BME280_pressure;Samples;Min_cycle;Max_cycle;Signal;HPM_P1;HPM_P2
2024/02/09 00:00:10;;;;;;;13.83;9.97;;;;;;;;;;5029809;28;20516;-75
2024/02/09 00:02:36;;;;;;;14.77;9.50;;;;;;;;;;5010971;28;20227;-76
2024/02/09 00:05:02;;;;;;;16.43;9.80;;;;;;;;;;5042715;28;20189;-75
2024/02/09 00:07:27;;;;;;;16.43;10.77;;;;;;;;;;5014529;28;20178;-75
2024/02/09 00:09:53;;;;;;;17.10;10.77;;;;;;;;;;5038708;28;20209;-75
2024/02/09 00:12:20;;;;;;;16.30;10.83;;;;;;;;;;5036018;28;20187;-74
2024/02/09 00:14:49;;;;;;;15.17;10.53;;;;;;;;;;5031987;28;20181;-74
2024/02/09 00:17:15;;;;;;;17.70;11.27;;;;;;;;;;5033932;28;20226;-74
2024/02/09 00:19:40;;;;;;;17.23;10.93;;;;;;;;;;5027796;28;20628;-75
2024/02/09 00:22:06;;;;;;;17.80;11.53;;;;;;;;;;5036832;28;20645;-75
2024/02/09 00:24:31;;;;;;;17.97;11.93;;;;;;;;;;5029867;28;20649;-75
2024/02/09 00:27:00;;;;;;;17.80;11.63;;;;;;;;;;5030130;28;20292;-76
2024/02/09 00:29:28;;;;;;;18.80;11.90;;;;;;;;;;5040173;28;20184;-75
2024/02/09 00:31:54;;;;;;;18.43;12.53;;;;;;;;;;5013753;28;20217;-75
2024/02/09 00:34:19;;;;;;;21.00;13.00;;;;;;;;;;5014733;28;20542;-75
2024/02/09 00:36:47;;;;;;;19.23;12.73;;;;;;;;;;5029285;28;20189;-74
2024/02/09 00:39:14;;;;;;;19.23;12.17;;;;;;;;;;5039914;28;20193;-74
2024/02/09 00:41:39;;;;;;;21.40;12.13;;;;;;;;;;5032137;28;20273;-74
2024/02/09 00:44:05;;;;;;;20.67;12.00;;;;;;;;;;5029294;28;20182;-74
2024/02/09 00:46:32;;;;;;;20.20;13.33;;;;;;;;;;5034794;28;20301;-74
2024/02/09 00:49:02;;;;;;;20.90;13.20;;;;;;;;;;5031214;28;20269;-74
2024/02/09 00:51:28;;;;;;;21.47;13.63;;;;;;;;;;5034706;28;20177;-74
2024/02/09 00:53:54;;;;;;;21.53;13.77;;;;;;;;;;5035088;28;20182;-74
2024/02/09 00:56:19;;;;;;;20.67;13.00;;;;;;;;;;5031895;28;20182;-74
2024/02/09 00:58:45;;;;;;;22.70;13.87;;;;;;;;;;5031305;28;20229;-74
2024/02/09 01:01:11;;;;;;;22.50;13.87;;;;;;;;;;5028956;28;20587;-74
2024/02/09 01:03:37;;;;;;;24.40;14.57;;;;;;;;;;5035204;28;20243;-74
2024/02/09 01:06:04;;;;;;;23.37;14.90;;;;;;;;;;5028521;28;20197;-74
2024/02/09 01:08:30;;;;;;;22.47;13.70;;;;;;;;;;5029418;28;20212;-74
2024/02/09 01:10:55;;;;;;;23.17;14.83;;;;;;;;;;5028384;28;20186;-74
2024/02/09 02:46:15;;;;;;;43.27;18.73;;;;;;;;;;5029139;28;20186;-74
2024/02/09 03:05:14;;;;;;;40.73;17.93;;;;;;;;;;5029007;28;20263;-75
2024/02/09 03:07:43;;;;;;;43.10;17.93;;;;;;;;;;5018674;28;20327;-75
2024/02/09 03:10:09;;;;;;;39.53;18.80;;;;;;;;;;5028059;28;20262;-75
2024/02/09 03:12:37;;;;;;;45.10;19.57;;;;;;;;;;5029337;28;20225;-75
2024/02/09 03:15:06;;;;;;;50.23;19.73;;;;;;;;;;5045777;28;20640;-75
2024/02/09 03:17:32;;;;;;;45.67;19.83;;;;;;;;;;5028869;28;20237;-75
2024/02/09 03:20:00;;;;;;;41.87;19.67;;;;;;;;;;5008204;28;20252;-75
2024/02/09 03:22:28;;;;;;;47.10;19.93;;;;;;;;;;5039260;28;20189;-75
2024/02/09 03:24:54;;;;;;;42.27;19.30;;;;;;;;;;5038873;28;20189;-75
2024/02/09 03:27:19;;;;;;;65.40;21.07;;;;;;;;;;5029401;28;20503;-74
2024/02/09 03:29:44;;;;;;;50.90;21.43;;;;;;;;;;5021248;28;20189;-74
2024/02/09 03:32:13;;;;;;;53.87;21.00;;;;;;;;;;5026959;28;20318;-74
2024/02/09 03:34:39;;;;;;;56.43;20.60;;;;;;;;;;5029216;28;20598;-74
2024/02/09 03:37:04;;;;;;;63.03;21.57;;;;;;;;;;5026497;28;20205;-74
2024/02/09 03:39:30;;;;;;;54.07;20.60;;;;;;;;;;5036193;28;20225;-75
2024/02/09 03:41:55;;;;;;;54.67;20.07;;;;;;;;;;5035751;28;20186;-74
2024/02/09 03:44:20;;;;;;;60.90;20.77;;;;;;;;;;5030585;28;20193;-74
2024/02/09 03:46:46;;;;;;;68.93;21.70;;;;;;;;;;5036189;28;20273;-74
2024/02/09 03:49:12;;;;;;;56.25;19.50;;;;;;;;;;5017174;28;20736;-74
2024/02/09 03:51:37;;;;;;;54.97;19.83;;;;;;;;;;5035583;28;20532;-75
2024/02/09 03:54:03;;;;;;;58.53;21.83;;;;;;;;;;5046988;28;20221;-74
2024/02/09 03:56:30;;;;;;;56.77;21.40;;;;;;;;;;5028269;28;20186;-74
2024/02/09 03:58:58;;;;;;;75.13;21.98;;;;;;;;;;5026705;28;20237;-74
2024/02/09 04:01:24;;;;;;;72.43;21.95;;;;;;;;;;5032988;28;20201;-74
2024/02/09 04:03:49;;;;;;;54.55;20.25;;;;;;;;;;5046299;28;20309;-75
2024/02/09 04:06:15;;;;;;;55.78;20.85;;;;;;;;;;5032702;28;20213;-74
2024/02/09 04:08:40;;;;;;;56.40;20.23;;;;;;;;;;5047207;28;20178;-74
2024/02/09 04:11:05;;;;;;;45.45;18.92;;;;;;;;;;5032000;28;20281;-75
2024/02/09 04:13:31;;;;;;;40.13;17.48;;;;;;;;;;5033564;28;20186;-74
2024/02/09 04:16:00;;;;;;;42.53;16.85;;;;;;;;;;5025613;28;20210;-74
2024/02/09 04:18:28;;;;;;;41.40;16.73;;;;;;;;;;5043472;28;20264;-74
2024/02/09 04:20:54;;;;;;;50.00;18.58;;;;;;;;;;5042165;28;20672;-74
2024/02/09 04:23:20;;;;;;;39.10;16.83;;;;;;;;;;5038243;28;20280;-74
2024/02/09 04:25:45;;;;;;;37.92;16.30;;;;;;;;;;5013142;28;20294;-75
2024/02/09 04:28:12;;;;;;;41.08;17.17;;;;;;;;;;5040957;28;20223;-74
2024/02/09 04:30:37;;;;;;;44.83;18.48;;;;;;;;;;5041601;28;20217;-75
2024/02/09 04:33:03;;;;;;;41.03;17.30;;;;;;;;;;5042957;28;20182;-74
2024/02/09 04:35:28;;;;;;;41.92;17.67;;;;;;;;;;5018424;28;20217;-74
2024/02/09 04:37:54;;;;;;;44.30;17.88;;;;;;;;;;5036695;28;20584;-75
2024/02/09 04:40:19;;;;;;;47.83;17.92;;;;;;;;;;5033009;28;20218;-74
2024/02/09 04:42:46;;;;;;;46.55;18.67;;;;;;;;;;5032367;28;20240;-75
2024/02/09 04:45:11;;;;;;;47.17;18.45;;;;;;;;;;5018277;28;20550;-75
2024/02/09 04:47:37;;;;;;;42.05;17.77;;;;;;;;;;5030137;28;20625;-76
2024/02/09 04:50:04;;;;;;;55.35;19.42;;;;;;;;;;5037630;28;20629;-74
2024/02/09 04:52:29;;;;;;;45.45;17.48;;;;;;;;;;5012190;28;20671;-74
2024/02/09 04:54:55;;;;;;;42.63;18.40;;;;;;;;;;5041605;28;20190;-74
2024/02/09 04:57:21;;;;;;;40.60;16.98;;;;;;;;;;5028958;28;20710;-74
2024/02/09 04:59:47;;;;;;;42.80;17.90;;;;;;;;;;5033592;28;20637;-74
2024/02/09 05:02:12;;;;;;;43.33;17.08;;;;;;;;;;5018957;28;20242;-74
2024/02/09 05:04:38;;;;;;;39.65;16.75;;;;;;;;;;5036810;28;20501;-74
2024/02/09 05:07:04;;;;;;;32.83;15.93;;;;;;;;;;5032213;28;20198;-75
2024/02/09 05:09:30;;;;;;;35.65;16.67;;;;;;;;;;5033025;28;20202;-74
2024/02/09 05:11:57;;;;;;;46.45;17.30;;;;;;;;;;5025369;28;20273;-75
2024/02/09 05:14:22;;;;;;;38.53;14.95;;;;;;;;;;5040521;28;20174;-75
2024/02/09 05:16:50;;;;;;;40.60;15.73;;;;;;;;;;5043171;28;20290;-75
2024/02/09 05:19:15;;;;;;;42.60;16.02;;;;;;;;;;5040684;28;20548;-76
2024/02/09 05:21:41;;;;;;;26.60;13.48;;;;;;;;;;5012560;28;20276;-75
2024/02/09 05:24:07;;;;;;;35.88;13.65;;;;;;;;;;5031530;28;20201;-74
2024/02/09 05:26:33;;;;;;;33.97;12.88;;;;;;;;;;5021809;28;20273;-76
2024/02/09 05:29:02;;;;;;;30.77;12.85;;;;;;;;;;5042647;28;20185;-75
2024/02/09 05:31:28;;;;;;;29.42;11.95;;;;;;;;;;5036019;28;20197;-75
2024/02/09 05:33:54;;;;;;;26.20;11.48;;;;;;;;;;4993918;28;20187;-75
2024/02/09 05:36:24;;;;;;;30.15;10.82;;;;;;;;;;5012624;28;20185;-75
2024/02/09 05:38:51;;;;;;;23.10;10.77;;;;;;;;;;5029376;28;20234;-74
2024/02/09 05:41:17;;;;;;;24.65;10.60;;;;;;;;;;5020078;28;20187;-74
2024/02/09 05:43:47;;;;;;;22.55;11.00;;;;;;;;;;5022019;28;20287;-75
2024/02/09 05:46:13;;;;;;;22.20;9.60;;;;;;;;;;5034390;28;20189;-75
2024/02/09 05:48:38;;;;;;;22.58;9.43;;;;;;;;;;5036974;28;20186;-75
2024/02/09 05:51:10;;;;;;;22.27;10.38;;;;;;;;;;5031887;28;20230;-75
2024/02/09 05:53:36;;;;;;;23.80;11.32;;;;;;;;;;5009783;28;20269;-74
2024/02/09 05:56:01;;;;;;;20.48;9.50;;;;;;;;;;5041828;28;20276;-74
2024/02/09 05:58:27;;;;;;;20.25;8.95;;;;;;;;;;5011702;28;20214;-75
2024/02/09 06:00:52;;;;;;;22.10;9.77;;;;;;;;;;5019472;28;20191;-74
2024/02/09 06:03:18;;;;;;;21.67;9.90;;;;;;;;;;5033686;28;20244;-76
2024/02/09 06:05:43;;;;;;;17.65;9.07;;;;;;;;;;5018502;28;20208;-75
2024/02/09 06:08:09;;;;;;;21.23;9.20;;;;;;;;;;5027604;28;20174;-74
2024/02/09 06:10:35;;;;;;;21.65;9.45;;;;;;;;;;5028534;28;20634;-74
2024/02/09 06:13:01;;;;;;;17.55;8.93;;;;;;;;;;5032636;28;20177;-75
2024/02/09 06:15:26;;;;;;;22.35;9.68;;;;;;;;;;5036671;28;20252;-75
2024/02/09 06:17:52;;;;;;;19.30;9.70;;;;;;;;;;5020157;28;20657;-75
2024/02/09 06:20:22;;;;;;;18.55;9.13;;;;;;;;;;5027804;28;20220;-76
2024/02/09 06:22:51;;;;;;;22.40;9.82;;;;;;;;;;5016109;28;20189;-75
2024/02/09 06:25:16;;;;;;;20.70;9.30;;;;;;;;;;5039471;28;20610;-75
2024/02/09 06:27:42;;;;;;;17.65;9.00;;;;;;;;;;5028053;28;20296;-75
2024/02/09 06:30:10;;;;;;;23.27;9.48;;;;;;;;;;5010808;28;20534;-76
2024/02/09 06:32:36;;;;;;;17.55;8.82;;;;;;;;;;5029152;28;20182;-75
2024/02/09 06:35:01;;;;;;;14.70;8.38;;;;;;;;;;5035739;28;20193;-75
2024/02/09 06:37:29;;;;;;;22.08;9.10;;;;;;;;;;5029305;28;20264;-74
2024/02/09 06:39:55;;;;;;;20.48;9.82;;;;;;;;;;5039444;28;20190;-74
2024/02/09 06:42:20;;;;;;;17.85;9.18;;;;;;;;;;5013964;28;20182;-76
2024/02/09 06:44:47;;;;;;;17.17;8.93;;;;;;;;;;5006529;28;20182;-75
2024/02/09 06:47:13;;;;;;;15.00;8.95;;;;;;;;;;5026137;28;20325;-76
2024/02/09 06:49:45;;;;;;;13.90;8.15;;;;;;;;;;5010736;28;20374;-75
2024/02/09 06:52:11;;;;;;;18.92;8.20;;;;;;;;;;5030964;28;20320;-76
2024/02/09 06:54:37;;;;;;;16.60;8.70;;;;;;;;;;5041916;28;20186;-75
2024/02/09 06:57:03;;;;;;;20.83;9.18;;;;;;;;;;5041830;28;20192;-75
2024/02/09 06:59:29;;;;;;;14.65;8.65;;;;;;;;;;5019484;28;20728;-75
2024/02/09 07:01:55;;;;;;;15.45;7.85;;;;;;;;;;5033797;28;20216;-76
2024/02/09 07:04:23;;;;;;;13.32;7.55;;;;;;;;;;5028054;28;20213;-75
2024/02/09 07:06:51;;;;;;;18.40;8.02;;;;;;;;;;5027265;28;20264;-76
2024/02/09 07:09:20;;;;;;;13.30;8.50;;;;;;;;;;5024342;28;20309;-76
2024/02/09 07:11:50;;;;;;;14.93;7.97;;;;;;;;;;5031512;28;20690;-76
2024/02/09 07:14:16;;;;;;;13.95;7.68;;;;;;;;;;5010505;28;20225;-75
2024/02/09 07:16:43;;;;;;;14.90;8.10;;;;;;;;;;5000656;28;20186;-75
2024/02/09 07:19:12;;;;;;;15.68;7.70;;;;;;;;;;5018554;28;20308;-74
2024/02/09 07:21:38;;;;;;;16.35;8.18;;;;;;;;;;5023411;28;20208;-76
2024/02/09 07:24:04;;;;;;;18.02;8.10;;;;;;;;;;5027557;28;20193;-75
2024/02/09 07:26:30;;;;;;;15.38;8.05;;;;;;;;;;5028200;28;20182;-75
2024/02/09 07:28:57;;;;;;;15.18;7.80;;;;;;;;;;5029239;28;20201;-76
2024/02/09 07:31:23;;;;;;;15.60;7.00;;;;;;;;;;5034331;28;20186;-75
2024/02/09 07:33:49;;;;;;;12.27;6.25;;;;;;;;;;5025466;28;20702;-75
2024/02/09 07:36:14;;;;;;;12.85;6.32;;;;;;;;;;5037871;28;20269;-76
2024/02/09 07:38:40;;;;;;;13.15;5.97;;;;;;;;;;5009971;28;20288;-76
2024/02/09 07:41:08;;;;;;;12.07;6.35;;;;;;;;;;5039994;28;20544;-75
2024/02/09 07:43:34;;;;;;;10.07;5.90;;;;;;;;;;5024345;28;20201;-76
2024/02/09 07:45:59;;;;;;;10.75;6.03;;;;;;;;;;5042862;28;20625;-76
2024/02/09 07:48:25;;;;;;;10.88;5.55;;;;;;;;;;5035873;28;20185;-76
2024/02/09 07:50:52;;;;;;;10.82;5.10;;;;;;;;;;5027777;28;20269;-75
2024/02/09 07:53:18;;;;;;;10.23;5.20;;;;;;;;;;5032990;28;20664;-76
2024/02/09 07:55:43;;;;;;;12.70;5.47;;;;;;;;;;5040279;28;20197;-76
2024/02/09 07:58:09;;;;;;;10.85;4.72;;;;;;;;;;5041439;28;20207;-76
2024/02/09 08:00:35;;;;;;;11.82;4.95;;;;;;;;;;5041955;28;20247;-76
2024/02/09 08:03:00;;;;;;;10.63;4.90;;;;;;;;;;5033592;28;20634;-75
2024/02/09 08:05:26;;;;;;;13.25;4.47;;;;;;;;;;5026067;28;20218;-75
2024/02/09 08:07:52;;;;;;;9.55;4.57;;;;;;;;;;5034472;28;20232;-75
2024/02/09 08:10:17;;;;;;;9.20;4.07;;;;;;;;;;5034888;28;20213;-76
2024/02/09 08:12:44;;;;;;;8.55;4.15;;;;;;;;;;5036042;28;20653;-76
2024/02/09 08:15:11;;;;;;;10.98;4.40;;;;;;;;;;5046749;28;20193;-77
2024/02/09 08:17:45;;;;;;;9.93;3.97;;;;;;;;;;5033322;28;20230;-76
2024/02/09 08:20:10;;;;;;;7.82;3.80;;;;;;;;;;5038115;28;20218;-76
2024/02/09 08:22:38;;;;;;;8.75;4.07;;;;;;;;;;5025475;28;20198;-75
2024/02/09 08:25:04;;;;;;;8.43;3.90;;;;;;;;;;5031013;28;20233;-76
2024/02/09 08:27:29;;;;;;;9.02;4.40;;;;;;;;;;5040327;28;20182;-76
2024/02/09 08:29:56;;;;;;;9.00;3.50;;;;;;;;;;5031317;28;20599;-75
2024/02/09 08:32:23;;;;;;;15.30;4.95;;;;;;;;;;5030626;28;20685;-76
2024/02/09 08:34:50;;;;;;;8.38;3.67;;;;;;;;;;5030528;28;20221;-76
2024/02/09 08:37:17;;;;;;;6.95;3.92;;;;;;;;;;5045002;28;20193;-76
2024/02/09 08:39:45;;;;;;;10.38;4.10;;;;;;;;;;5044045;28;20217;-77
2024/02/09 08:42:11;;;;;;;8.27;3.95;;;;;;;;;;5037574;28;20198;-77
2024/02/09 08:44:37;;;;;;;7.78;3.97;;;;;;;;;;5042527;28;20597;-77
2024/02/09 08:47:03;;;;;;;7.70;4.05;;;;;;;;;;5044877;28;20233;-76
2024/02/09 08:49:29;;;;;;;9.10;4.20;;;;;;;;;;5035396;28;20189;-77
2024/02/09 08:51:54;;;;;;;7.20;3.90;;;;;;;;;;5034727;28;20630;-76
2024/02/09 08:54:20;;;;;;;6.97;4.32;;;;;;;;;;5023082;28;20202;-77
2024/02/09 08:56:45;;;;;;;5.72;3.63;;;;;;;;;;5038528;28;20268;-76
2024/02/09 08:59:11;;;;;;;7.97;4.03;;;;;;;;;;5022719;28;20210;-76
2024/02/09 09:01:36;;;;;;;6.68;4.03;;;;;;;;;;5036531;28;20280;-77
2024/02/09 09:04:03;;;;;;;7.20;3.95;;;;;;;;;;5032222;28;20645;-77
2024/02/09 09:06:28;;;;;;;8.52;4.32;;;;;;;;;;5031339;28;20213;-77
2024/02/09 09:08:55;;;;;;;7.40;4.13;;;;;;;;;;5045913;28;20573;-77
2024/02/09 09:11:21;;;;;;;11.20;4.75;;;;;;;;;;5031302;28;20204;-77
2024/02/09 09:13:47;;;;;;;10.38;4.10;;;;;;;;;;5034364;28;20179;-77
2024/02/09 09:16:16;;;;;;;8.95;3.95;;;;;;;;;;5029987;28;20197;-77
2024/02/09 09:18:45;;;;;;;8.05;4.32;;;;;;;;;;5030185;28;20225;-77
2024/02/09 09:21:11;;;;;;;9.02;4.25;;;;;;;;;;5032273;28;20617;-77
2024/02/09 09:23:38;;;;;;;9.45;3.95;;;;;;;;;;5042508;28;20189;-76
2024/02/09 09:26:04;;;;;;;7.82;3.60;;;;;;;;;;5030216;28;20198;-76
2024/02/09 09:28:29;;;;;;;8.15;3.70;;;;;;;;;;5034343;28;20236;-76
2024/02/09 09:30:55;;;;;;;10.07;4.18;;;;;;;;;;5030296;28;20599;-77
2024/02/09 09:33:20;;;;;;;8.63;3.90;;;;;;;;;;5021408;28;20801;-77
2024/02/09 09:35:45;;;;;;;9.35;4.03;;;;;;;;;;5017326;28;20622;-76
2024/02/09 09:38:11;;;;;;;10.98;3.80;;;;;;;;;;5039917;28;20268;-76
2024/02/09 09:40:39;;;;;;;9.15;3.75;;;;;;;;;;5043868;28;20185;-76
2024/02/09 09:43:05;;;;;;;7.68;3.75;;;;;;;;;;5042068;28;20669;-78
2024/02/09 09:45:34;;;;;;;8.93;4.65;;;;;;;;;;5016016;28;20232;-76
2024/02/09 09:48:04;;;;;;;13.13;4.65;;;;;;;;;;5034210;28;20202;-78
2024/02/09 09:50:31;;;;;;;8.48;4.00;;;;;;;;;;5012669;28;20186;-77
2024/02/09 09:53:04;;;;;;;8.95;3.65;;;;;;;;;;5026398;28;20201;-76
2024/02/09 09:55:32;;;;;;;13.43;4.13;;;;;;;;;;5031531;28;20190;-77
2024/02/09 09:57:58;;;;;;;9.70;4.32;;;;;;;;;;5010370;28;20202;-76
2024/02/09 10:00:25;;;;;;;7.35;3.67;;;;;;;;;;5034068;28;20220;-77
2024/02/09 10:02:51;;;;;;;11.93;4.03;;;;;;;;;;5032612;28;20190;-76
2024/02/09 10:05:17;;;;;;;11.07;4.18;;;;;;;;;;5026598;28;20194;-77
2024/02/09 10:07:42;;;;;;;9.45;3.88;;;;;;;;;;5026075;28;20213;-76
2024/02/09 10:10:10;;;;;;;8.63;3.90;;;;;;;;;;5030357;28;20219;-76
2024/02/09 10:12:36;;;;;;;9.13;4.00;;;;;;;;;;5035387;28;20195;-77
2024/02/09 10:15:03;;;;;;;11.52;4.10;;;;;;;;;;5034587;28;20202;-76
2024/02/09 10:17:29;;;;;;;9.27;4.35;;;;;;;;;;5034847;28;20249;-76
2024/02/09 10:19:58;;;;;;;9.02;4.65;;;;;;;;;;5023885;28;20201;-76
2024/02/09 10:22:24;;;;;;;11.52;4.63;;;;;;;;;;5029142;28;20190;-77
2024/02/09 10:24:49;;;;;;;9.13;3.78;;;;;;;;;;5029778;28;20213;-77
2024/02/09 10:27:15;;;;;;;10.77;4.72;;;;;;;;;;5029665;28;20186;-76
2024/02/09 10:29:41;;;;;;;10.82;3.88;;;;;;;;;;5034973;28;20194;-76
2024/02/09 10:32:07;;;;;;;7.50;3.63;;;;;;;;;;5004814;28;20240;-77
2024/02/09 10:34:32;;;;;;;11.32;4.40;;;;;;;;;;5029121;28;20214;-77
2024/02/09 10:36:58;;;;;;;12.20;3.80;;;;;;;;;;5037100;28;20220;-77
2024/02/09 10:39:24;;;;;;;8.48;3.42;;;;;;;;;;5042269;28;20676;-77
2024/02/09 10:41:52;;;;;;;8.13;3.72;;;;;;;;;;5036414;28;20237;-77
2024/02/09 10:44:20;;;;;;;12.25;4.00;;;;;;;;;;5023546;28;20216;-76
2024/02/09 10:46:46;;;;;;;7.07;3.40;;;;;;;;;;5030647;28;20186;-76
2024/02/09 10:49:14;;;;;;;13.35;3.95;;;;;;;;;;5035100;28;20180;-76
2024/02/09 10:51:40;;;;;;;6.22;3.70;;;;;;;;;;5017142;28;20191;-76
2024/02/09 10:54:19;;;;;;;9.05;3.85;;;;;;;;;;5039028;28;20182;-77
2024/02/09 10:56:46;;;;;;;7.57;3.60;;;;;;;;;;5040512;28;20196;-76
2024/02/09 10:59:13;;;;;;;10.02;4.00;;;;;;;;;;5026485;28;20202;-77
2024/02/09 11:01:39;;;;;;;11.88;3.90;;;;;;;;;;5021612;28;20185;-76
2024/02/09 11:04:05;;;;;;;10.70;3.70;;;;;;;;;;5025145;28;20194;-77
2024/02/09 11:06:32;;;;;;;9.38;4.18;;;;;;;;;;5025224;28;20205;-77
2024/02/09 11:08:58;;;;;;;9.38;4.68;;;;;;;;;;5025194;28;20195;-76
2024/02/09 11:11:27;;;;;;;8.50;4.07;;;;;;;;;;5039440;28;20521;-77
2024/02/09 11:14:11;;;;;;;8.52;3.90;;;;;;;;;;5036092;28;20204;-76
2024/02/09 11:16:48;;;;;;;11.57;3.75;;;;;;;;;;5035575;28;20402;-77
2024/02/09 11:19:16;;;;;;;15.35;3.92;;;;;;;;;;5023212;28;20241;-76
2024/02/09 11:21:53;;;;;;;8.90;4.03;;;;;;;;;;5023203;28;20182;-76
2024/02/09 11:24:21;;;;;;;6.60;3.40;;;;;;;;;;5003402;28;20182;-76
2024/02/09 11:26:48;;;;;;;10.38;3.72;;;;;;;;;;5033700;28;20547;-77
2024/02/09 11:29:14;;;;;;;9.00;3.45;;;;;;;;;;5027585;28;20170;-76
2024/02/09 11:31:41;;;;;;;10.02;3.60;;;;;;;;;;5037118;28;20182;-76
2024/02/09 11:34:07;;;;;;;8.43;3.63;;;;;;;;;;5029430;28;20192;-76
2024/02/09 11:36:33;;;;;;;8.95;3.50;;;;;;;;;;5035997;28;20661;-76
2024/02/09 11:38:58;;;;;;;6.93;3.08;;;;;;;;;;5033217;28;20222;-76
2024/02/09 11:41:25;;;;;;;11.95;3.33;;;;;;;;;;5029134;28;20200;-76
2024/02/09 11:43:51;;;;;;;7.18;3.22;;;;;;;;;;5035726;28;20194;-75
2024/02/09 11:46:19;;;;;;;7.32;3.22;;;;;;;;;;5027110;28;20192;-76
2024/02/09 11:48:45;;;;;;;9.68;3.38;;;;;;;;;;5026449;28;20186;-76
2024/02/09 11:51:20;;;;;;;12.23;3.40;;;;;;;;;;5035007;28;20223;-76
2024/02/09 11:53:49;;;;;;;7.97;3.97;;;;;;;;;;5030645;28;20181;-76
2024/02/09 11:56:15;;;;;;;8.63;4.03;;;;;;;;;;5027027;28;20323;-76
2024/02/09 11:58:41;;;;;;;11.35;3.55;;;;;;;;;;5018060;28;20297;-76
2024/02/09 12:01:09;;;;;;;10.30;4.13;;;;;;;;;;5027144;28;20201;-76
2024/02/09 12:03:34;;;;;;;8.95;3.50;;;;;;;;;;5032831;28;20247;-76
2024/02/09 12:06:05;;;;;;;7.38;3.15;;;;;;;;;;5041289;28;20247;-76
2024/02/09 12:08:31;;;;;;;7.65;2.90;;;;;;;;;;5030849;28;20314;-76
2024/02/09 12:10:56;;;;;;;7.25;3.05;;;;;;;;;;5023553;28;20302;-75
2024/02/09 12:13:23;;;;;;;13.73;3.08;;;;;;;;;;5032359;28;20479;-75
2024/02/09 12:15:49;;;;;;;5.85;2.58;;;;;;;;;;5041418;28;20186;-76
2024/02/09 12:18:16;;;;;;;9.10;3.10;;;;;;;;;;5035004;28;20221;-75
2024/02/09 12:20:43;;;;;;;8.82;3.00;;;;;;;;;;5028349;28;20191;-75
2024/02/09 12:23:09;;;;;;;6.15;2.88;;;;;;;;;;5023453;28;20267;-76
2024/02/09 12:25:38;;;;;;;9.68;3.03;;;;;;;;;;5041931;28;20284;-76
2024/02/09 12:28:09;;;;;;;7.05;3.00;;;;;;;;;;5039163;28;20308;-76
2024/02/09 12:30:42;;;;;;;11.27;3.10;;;;;;;;;;5012250;28;20197;-75
2024/02/09 12:33:08;;;;;;;4.75;2.60;;;;;;;;;;5018012;28;20190;-75
2024/02/09 12:35:34;;;;;;;6.40;2.60;;;;;;;;;;5031862;28;20263;-76
2024/02/09 12:38:02;;;;;;;9.85;2.88;;;;;;;;;;5037745;28;20332;-75
2024/02/09 12:40:28;;;;;;;6.43;2.70;;;;;;;;;;5032979;28;20189;-76
2024/02/09 12:42:53;;;;;;;9.45;3.33;;;;;;;;;;5033162;28;20567;-76
2024/02/09 12:45:25;;;;;;;8.68;2.78;;;;;;;;;;5024077;28;20276;-75
2024/02/09 12:47:51;;;;;;;8.63;3.10;;;;;;;;;;5032550;28;20540;-76
2024/02/09 12:50:18;;;;;;;8.60;3.22;;;;;;;;;;5023174;28;20281;-76
2024/02/09 12:52:44;;;;;;;9.13;3.30;;;;;;;;;;5010233;28;20209;-76
2024/02/09 12:55:10;;;;;;;8.32;3.00;;;;;;;;;;5032233;28;20479;-75
2024/02/09 12:57:38;;;;;;;8.98;3.22;;;;;;;;;;5030366;28;20723;-75
2024/02/09 13:00:05;;;;;;;8.57;2.85;;;;;;;;;;5039710;28;20186;-75
2024/02/09 13:02:32;;;;;;;9.55;2.80;;;;;;;;;;5031131;28;20274;-75
2024/02/09 13:04:58;;;;;;;7.00;2.85;;;;;;;;;;5027260;28;20728;-76
2024/02/09 13:07:23;;;;;;;10.57;2.60;;;;;;;;;;5034123;28;20261;-76
2024/02/09 13:09:48;;;;;;;6.88;2.70;;;;;;;;;;5031398;28;20254;-75
2024/02/09 13:12:14;;;;;;;8.02;2.38;;;;;;;;;;5034342;28;20220;-76
2024/02/09 13:14:40;;;;;;;8.10;2.72;;;;;;;;;;5038491;28;20204;-76
2024/02/09 13:17:06;;;;;;;9.80;2.50;;;;;;;;;;5031145;28;20244;-75
2024/02/09 13:19:32;;;;;;;5.28;2.40;;;;;;;;;;5025353;28;20221;-76
2024/02/09 13:22:01;;;;;;;5.60;2.72;;;;;;;;;;5026853;28;20273;-76
2024/02/09 13:24:30;;;;;;;6.93;2.38;;;;;;;;;;5044885;28;20194;-76
2024/02/09 13:26:55;;;;;;;6.30;2.70;;;;;;;;;;5020352;28;20193;-76
2024/02/09 13:29:24;;;;;;;6.68;2.70;;;;;;;;;;5037913;28;20184;-76
2024/02/09 13:31:58;;;;;;;10.10;2.53;;;;;;;;;;5038300;28;20204;-76
2024/02/09 13:34:23;;;;;;;9.32;2.33;;;;;;;;;;5048777;28;20216;-76
2024/02/09 13:36:49;;;;;;;7.43;2.17;;;;;;;;;;5043022;28;20205;-76
2024/02/09 13:39:14;;;;;;;7.28;2.70;;;;;;;;;;5011536;28;20214;-76
2024/02/09 13:41:43;;;;;;;7.07;2.33;;;;;;;;;;5036162;28;20186;-76
2024/02/09 13:44:09;;;;;;;5.10;2.38;;;;;;;;;;5048904;28;20596;-76
2024/02/09 13:46:35;;;;;;;6.05;2.35;;;;;;;;;;5033125;28;20274;-76
2024/02/09 13:49:00;;;;;;;6.55;2.20;;;;;;;;;;5018612;28;20218;-76
2024/02/09 13:51:29;;;;;;;6.80;1.90;;;;;;;;;;5042148;28;20268;-76
2024/02/09 13:54:00;;;;;;;7.50;2.20;;;;;;;;;;5036730;28;20190;-76
2024/02/09 13:56:26;;;;;;;6.25;2.78;;;;;;;;;;5034142;28;20236;-76
2024/02/09 13:58:52;;;;;;;6.28;2.50;;;;;;;;;;5029893;28;20553;-76
2024/02/09 14:01:18;;;;;;;5.85;1.90;;;;;;;;;;5044457;28;20185;-76
2024/02/09 14:03:44;;;;;;;8.57;2.13;;;;;;;;;;5030088;28;20646;-76
2024/02/09 14:06:10;;;;;;;7.18;2.20;;;;;;;;;;5029619;28;20190;-77
2024/02/09 14:08:38;;;;;;;9.23;1.98;;;;;;;;;;5039905;28;20646;-76
2024/02/09 14:11:05;;;;;;;5.38;1.90;;;;;;;;;;5023276;28;20276;-76
2024/02/09 14:13:31;;;;;;;6.45;2.28;;;;;;;;;;5024562;28;20190;-75
2024/02/09 14:15:58;;;;;;;6.47;2.30;;;;;;;;;;5025907;28;20186;-76
2024/02/09 14:18:24;;;;;;;6.10;2.05;;;;;;;;;;5027825;28;20226;-76
2024/02/09 14:20:50;;;;;;;6.10;2.13;;;;;;;;;;5050725;28;20182;-76
2024/02/09 14:23:16;;;;;;;3.53;2.30;;;;;;;;;;5028372;28;20235;-76
2024/02/09 14:25:44;;;;;;;7.43;2.03;;;;;;;;;;5029037;28;20257;-76
2024/02/09 14:28:10;;;;;;;5.00;2.20;;;;;;;;;;5015153;28;20194;-76
2024/02/09 14:30:35;;;;;;;7.65;2.55;;;;;;;;;;5009824;28;20616;-76
2024/02/09 14:33:01;;;;;;;6.70;2.50;;;;;;;;;;5011244;28;20352;-76
2024/02/09 14:35:26;;;;;;;7.65;2.20;;;;;;;;;;5011758;28;20186;-76
2024/02/09 14:37:52;;;;;;;10.77;2.20;;;;;;;;;;5047655;28;20566;-76
2024/02/09 14:40:18;;;;;;;7.72;1.88;;;;;;;;;;5050602;28;20518;-76
2024/02/09 14:42:43;;;;;;;6.32;2.15;;;;;;;;;;5026778;28;20205;-76
2024/02/09 14:45:10;;;;;;;4.25;1.70;;;;;;;;;;5018324;28;20282;-76
2024/02/09 14:47:36;;;;;;;4.25;1.58;;;;;;;;;;5025644;28;20198;-76
2024/02/09 14:50:07;;;;;;;6.88;2.05;;;;;;;;;;5019926;28;20569;-75
2024/02/09 14:52:33;;;;;;;5.80;1.98;;;;;;;;;;5020541;28;20183;-75
2024/02/09 14:54:58;;;;;;;4.28;1.70;;;;;;;;;;5020010;28;20181;-75
2024/02/09 14:57:24;;;;;;;4.13;1.65;;;;;;;;;;5027900;28;20190;-75
2024/02/09 14:59:50;;;;;;;4.82;1.90;;;;;;;;;;5021817;28;20214;-75
2024/02/09 15:02:16;;;;;;;3.63;1.90;;;;;;;;;;5026128;28;20600;-75
2024/02/09 15:04:42;;;;;;;10.20;2.30;;;;;;;;;;5042115;28;20218;-75
2024/02/09 15:07:08;;;;;;;5.93;1.95;;;;;;;;;;5027064;28;20519;-76
2024/02/09 15:09:34;;;;;;;7.57;2.28;;;;;;;;;;5032965;28;20186;-76
2024/02/09 15:12:02;;;;;;;4.47;1.92;;;;;;;;;;5029232;28;20194;-76
2024/02/09 15:14:28;;;;;;;4.25;1.90;;;;;;;;;;5028057;28;20225;-76
2024/02/09 15:16:54;;;;;;;5.25;2.00;;;;;;;;;;5026956;28;20186;-76
2024/02/09 15:19:20;;;;;;;6.55;2.20;;;;;;;;;;5026116;28;20589;-77
2024/02/09 15:21:50;;;;;;;4.60;1.92;;;;;;;;;;5046829;28;20185;-77
2024/02/09 15:24:18;;;;;;;7.50;2.40;;;;;;;;;;5036772;28;20194;-76
2024/02/09 15:26:45;;;;;;;8.10;1.88;;;;;;;;;;5028915;28;20592;-77
2024/02/09 15:29:11;;;;;;;4.88;2.30;;;;;;;;;;5032186;28;20223;-77
2024/02/09 15:31:37;;;;;;;7.22;2.40;;;;;;;;;;5037294;28;20613;-76
2024/02/09 15:34:03;;;;;;;5.22;2.45;;;;;;;;;;5024313;28;20194;-76
2024/02/09 15:36:30;;;;;;;6.15;2.35;;;;;;;;;;5010952;28;20202;-76
2024/02/09 15:38:56;;;;;;;5.00;2.53;;;;;;;;;;5027956;28;20268;-76
2024/02/09 15:41:22;;;;;;;9.45;2.30;;;;;;;;;;5046720;28;20185;-76
2024/02/09 15:43:48;;;;;;;4.68;2.08;;;;;;;;;;5038528;28;20189;-76
2024/02/09 15:46:15;;;;;;;8.90;2.72;;;;;;;;;;5023555;28;20264;-75
2024/02/09 15:48:50;;;;;;;6.03;2.20;;;;;;;;;;5026201;28;20190;-75
2024/02/09 15:51:25;;;;;;;5.50;2.22;;;;;;;;;;5046320;28;20184;-76
2024/02/09 15:53:57;;;;;;;4.03;2.10;;;;;;;;;;5037527;28;20671;-75
2024/02/09 15:56:25;;;;;;;6.13;2.33;;;;;;;;;;5023953;28;20189;-75
2024/02/09 15:58:53;;;;;;;7.63;3.05;;;;;;;;;;5037576;28;20210;-75
2024/02/09 16:01:19;;;;;;;8.43;2.45;;;;;;;;;;5044215;28;20186;-75
2024/02/09 16:03:50;;;;;;;4.45;2.25;;;;;;;;;;5040787;28;20247;-75
2024/02/09 16:06:15;;;;;;;6.95;2.45;;;;;;;;;;5010889;28;20568;-75
2024/02/09 16:08:42;;;;;;;6.07;2.45;;;;;;;;;;5042892;28;20178;-75
2024/02/09 16:11:09;;;;;;;5.03;2.45;;;;;;;;;;5030811;28;20210;-75
2024/02/09 16:13:39;;;;;;;9.38;2.80;;;;;;;;;;5035874;28;20624;-75
2024/02/09 16:16:10;;;;;;;6.35;2.72;;;;;;;;;;5014955;28;20601;-76
2024/02/09 16:18:40;;;;;;;6.72;2.50;;;;;;;;;;5031078;28;20233;-75